createdAt,value
2022-08-29T00:01:40.697Z,101559.69
2022-08-29T00:06:42.080Z,101553.09
2022-08-29T00:11:46.392Z,101547.97
2022-08-29T00:16:48.203Z,101544.38
2022-08-29T00:21:50.659Z,101541.53
2022-08-29T00:26:52.062Z,101536.81
2022-08-29T00:31:53.559Z,101543.75
2022-08-29T00:36:55.074Z,101547.22
2022-08-29T00:41:56.619Z,101552.09
2022-08-29T00:47:05.461Z,101542.91
2022-08-29T00:52:13.938Z,101539.84
2022-08-29T00:57:17.081Z,101535.97
2022-08-29T01:02:19.319Z,101535.13
2022-08-29T01:07:20.950Z,101539.72
2022-08-29T01:12:22.535Z,101544.69
2022-08-29T01:17:34.951Z,101548.94
2022-08-29T01:22:59.827Z,101564.06
2022-08-29T01:28:24.742Z,101570.44
2022-08-29T01:33:31.091Z,101569.75
2022-08-29T01:38:32.551Z,101574.91
2022-08-29T01:43:43.354Z,101576.22
2022-08-29T01:48:45.555Z,101574.38
2022-08-29T01:53:47.232Z,101580.19
2022-08-29T01:58:51.135Z,101581.03
2022-08-29T02:03:52.645Z,101592.97
2022-08-29T02:08:54.419Z,101580.88
2022-08-29T02:13:58.101Z,101572.47
2022-08-29T02:18:59.637Z,101584.44
2022-08-29T02:24:21.370Z,101587.75
2022-08-29T02:29:25.594Z,101589.59
2022-08-29T02:34:27.029Z,101582.38
2022-08-29T02:39:28.533Z,101577.84
2022-08-29T02:44:31.405Z,101570.63
2022-08-29T02:49:32.778Z,101573.34
2022-08-29T02:54:35.976Z,101571.88
2022-08-29T02:59:37.390Z,101572.31
2022-08-29T03:04:39.000Z,101575.59
2022-08-29T03:09:40.431Z,101572.91
2022-08-29T03:14:41.977Z,101557.69
2022-08-29T03:19:43.382Z,101551.50
2022-08-29T03:24:44.953Z,101547.19
2022-08-29T03:29:46.663Z,101545.31
2022-08-29T03:34:48.360Z,101535.66
2022-08-29T03:39:49.892Z,101540.59
2022-08-29T03:44:51.321Z,101540.41
2022-08-29T03:49:52.747Z,101539.56
2022-08-29T03:54:54.223Z,101533.19
2022-08-29T03:59:55.620Z,101534.59
2022-08-29T04:04:57.149Z,101538.50
2022-08-29T04:09:58.623Z,101532.97
2022-08-29T04:15:00.025Z,101533.16
2022-08-29T04:20:02.081Z,101538.28
2022-08-29T04:25:05.983Z,101551.47
2022-08-29T04:30:16.262Z,101556.81
2022-08-29T04:35:17.970Z,101559.31
2022-08-29T04:40:21.774Z,101566.66
2022-08-29T04:45:23.741Z,101570.16
2022-08-29T04:50:25.527Z,101575.28
2022-08-29T04:55:26.985Z,101569.56
2022-08-29T05:00:28.859Z,101574.19
2022-08-29T05:05:31.945Z,101572.41
2022-08-29T05:10:33.353Z,101568.09
2022-08-29T05:15:34.781Z,101569.75
2022-08-29T05:20:40.379Z,101578.22
2022-08-29T05:25:42.748Z,101578.84
2022-08-29T05:30:44.157Z,101581.56
2022-08-29T05:35:45.716Z,101591.84
2022-08-29T05:40:47.208Z,101597.25
2022-08-29T05:45:48.625Z,101607.13
2022-08-29T05:50:51.037Z,101606.69
2022-08-29T05:55:53.392Z,101610.41
2022-08-29T06:00:54.824Z,101606.72
2022-08-29T06:05:56.380Z,101612.25
2022-08-29T06:10:57.822Z,101607.63
2022-08-29T06:15:59.679Z,101620.72
2022-08-29T06:21:04.746Z,101611.84
2022-08-29T06:26:08.062Z,101618.25
2022-08-29T06:31:12.661Z,101617.78
2022-08-29T06:36:15.050Z,101613.34
2022-08-29T06:41:17.806Z,101622.31
2022-08-29T06:46:26.821Z,101627.84
2022-08-29T06:51:29.507Z,101634.78
2022-08-29T06:56:31.280Z,101637.16
2022-08-29T07:01:33.693Z,101643.09
2022-08-29T07:06:37.593Z,101634.16
2022-08-29T07:11:41.875Z,101643.16
2022-08-29T07:16:43.460Z,101642.72
2022-08-29T07:21:44.929Z,101654.81
2022-08-29T07:26:46.401Z,101653.63
2022-08-29T07:31:48.432Z,101647.88
2022-08-29T07:36:49.855Z,101647.13
2022-08-29T07:41:51.928Z,101641.84
2022-08-29T07:46:57.507Z,101645.38
2022-08-29T07:52:02.322Z,101638.44
2022-08-29T08:02:25.640Z,101645.41
2022-08-29T08:07:29.583Z,101642.06
2022-08-29T08:12:31.175Z,101640.50
2022-08-29T08:17:33.215Z,101655.91
2022-08-29T08:22:35.572Z,101644.38
2022-08-29T08:27:41.250Z,101641.69
2022-08-29T08:32:47.380Z,101650.69
2022-08-29T08:37:50.222Z,101653.09
2022-08-29T08:42:52.990Z,101648.69
2022-08-29T08:48:01.951Z,101643.88
2022-08-29T08:53:17.297Z,101641.41
2022-08-29T08:58:26.069Z,101648.28
2022-08-29T09:04:11.019Z,101654.88
2022-08-29T09:09:28.118Z,101652.28
2022-08-29T09:14:51.105Z,101655.84
2022-08-29T09:19:54.937Z,101657.75
2022-08-29T09:25:01.581Z,101657.84
2022-08-29T09:30:14.976Z,101656.22
2022-08-29T09:35:36.776Z,101653.88
2022-08-29T09:40:50.358Z,101653.28
2022-08-29T09:46:10.760Z,101645.47
2022-08-29T09:51:32.960Z,101638.34
2022-08-29T09:56:37.167Z,101634.50
2022-08-29T10:01:38.711Z,101642.59
2022-08-29T10:06:45.119Z,101640.84
2022-08-29T10:12:07.920Z,101640.47
2022-08-29T10:17:47.157Z,101629.94
2022-08-29T10:22:55.499Z,101628.28
2022-08-29T10:28:12.727Z,101624.88
2022-08-29T10:45:44.968Z,101616.09
2022-08-29T10:51:22.564Z,101610.16
2022-08-29T10:56:40.389Z,101608.59
2022-08-29T11:02:16.906Z,101595.97
2022-08-29T11:08:00.722Z,101587.00
2022-08-29T11:14:05.370Z,101588.16
2022-08-29T11:19:20.157Z,101580.91
2022-08-29T11:24:31.712Z,101571.09
2022-08-29T11:29:47.675Z,101576.44
2022-08-29T11:35:29.999Z,101571.28
2022-08-29T11:46:37.583Z,101560.59
2022-08-29T11:51:41.164Z,101561.09
2022-08-29T11:56:42.918Z,101553.25
2022-08-29T12:01:55.913Z,101550.50
2022-08-29T12:07:01.470Z,101553.81
2022-08-29T12:12:04.409Z,101542.66
2022-08-29T12:17:16.611Z,101535.75
2022-08-29T12:23:02.773Z,101537.22
2022-08-29T12:40:01.642Z,101519.16
2022-08-29T12:51:00.951Z,101494.16
2022-08-29T13:02:18.592Z,101496.00
2022-08-29T13:13:21.839Z,101482.66
2022-08-29T13:18:23.910Z,101477.31
2022-08-29T13:24:08.887Z,101483.19
2022-08-29T13:29:27.428Z,101477.75
2022-08-29T13:34:44.781Z,101475.28
2022-08-29T13:39:56.200Z,101470.81
2022-08-29T13:45:22.265Z,101463.22
2022-08-29T13:50:27.525Z,101457.72
2022-08-29T13:55:29.257Z,101452.66
2022-08-29T14:00:35.106Z,101442.75
2022-08-29T14:05:37.837Z,101439.72
2022-08-29T14:10:39.700Z,101427.13
2022-08-29T14:15:41.862Z,101438.66
2022-08-29T14:20:48.839Z,101429.13
2022-08-29T14:25:52.134Z,101426.16
2022-08-29T14:30:59.645Z,101436.03
2022-08-29T14:36:07.590Z,101429.72
2022-08-29T14:41:09.179Z,101426.63
2022-08-29T14:47:29.444Z,101410.94
2022-08-29T14:51:49.137Z,101420.00
2022-08-29T14:57:06.570Z,101415.94
2022-08-29T15:02:09.015Z,101413.22
2022-08-29T15:07:14.209Z,101409.78
2022-08-29T15:12:22.168Z,101404.00
2022-08-29T15:18:47.958Z,101392.56
2022-08-29T15:23:41.448Z,101383.66
2022-08-29T15:28:42.920Z,101383.75
2022-08-29T15:33:44.493Z,101374.44
2022-08-29T15:38:57.825Z,101366.97
2022-08-29T15:44:06.761Z,101361.78
2022-08-29T15:49:28.839Z,101362.00
2022-08-29T15:54:37.669Z,101350.63
2022-08-29T16:11:15.249Z,101353.56
2022-08-29T16:16:17.182Z,101338.47
2022-08-29T16:21:27.773Z,101344.75
2022-08-29T16:26:30.653Z,101347.50
2022-08-29T16:31:32.610Z,101350.75
2022-08-29T16:36:34.124Z,101343.47
2022-08-29T16:41:35.581Z,101347.53
2022-08-29T16:46:37.106Z,101344.84
2022-08-29T16:51:39.329Z,101347.44
2022-08-29T16:56:40.871Z,101342.00
2022-08-29T17:01:45.839Z,101338.44
2022-08-29T17:06:47.969Z,101345.94
2022-08-29T17:11:50.690Z,101346.09
2022-08-29T17:16:55.724Z,101335.06
2022-08-29T17:21:57.244Z,101337.91
2022-08-29T17:27:01.593Z,101343.31
2022-08-29T17:32:04.508Z,101342.25
2022-08-29T17:37:06.778Z,101339.38
2022-08-29T17:42:08.255Z,101332.19
2022-08-29T17:47:09.670Z,101332.69
2022-08-29T17:52:11.553Z,101337.59
2022-08-29T17:57:13.295Z,101341.22
2022-08-29T18:02:14.798Z,101349.25
2022-08-29T18:07:16.210Z,101338.53
2022-08-29T18:12:17.907Z,101330.41
2022-08-29T18:17:19.429Z,101339.16
2022-08-29T18:22:20.928Z,101335.69
2022-08-29T18:27:22.558Z,101338.16
2022-08-29T18:32:24.092Z,101337.66
2022-08-29T18:37:25.579Z,101337.47
2022-08-29T18:42:39.945Z,101341.81
2022-08-29T18:47:42.626Z,101341.00
2022-08-29T18:52:44.481Z,101345.63
2022-08-29T18:57:46.087Z,101344.59
2022-08-29T19:02:47.669Z,101338.63
2022-08-29T19:07:49.336Z,101343.75
2022-08-29T19:12:50.916Z,101345.41
2022-08-29T19:17:53.144Z,101348.91
2022-08-29T19:22:54.910Z,101343.44
2022-08-29T19:27:56.965Z,101356.72
2022-08-29T19:33:01.758Z,101358.06
2022-08-29T19:38:04.319Z,101359.41
2022-08-29T19:43:13.427Z,101369.44
2022-08-29T19:48:16.159Z,101368.31
2022-08-29T19:53:24.661Z,101357.22
2022-08-29T20:03:46.819Z,101354.16
2022-08-29T20:08:48.693Z,101355.69
2022-08-29T20:13:52.758Z,101360.56
2022-08-29T20:18:55.816Z,101352.63
2022-08-29T20:23:58.428Z,101356.66
2022-08-29T20:29:02.451Z,101364.75
2022-08-29T20:34:04.504Z,101363.91
2022-08-29T20:39:08.625Z,101361.47
2022-08-29T20:44:10.187Z,101365.25
2022-08-29T20:49:14.298Z,101365.72
2022-08-29T20:54:18.904Z,101369.72
2022-08-29T20:59:24.644Z,101368.66
2022-08-29T21:04:27.717Z,101363.47
2022-08-29T21:09:29.594Z,101361.16
2022-08-29T21:14:31.053Z,101367.53
2022-08-29T21:19:32.928Z,101371.19
2022-08-29T21:24:37.535Z,101371.72
2022-08-29T21:29:39.183Z,101367.03
2022-08-29T21:34:41.146Z,101369.69
2022-08-29T21:39:42.667Z,101370.56
2022-08-29T21:44:44.218Z,101370.25
2022-08-29T21:49:45.871Z,101368.34
2022-08-29T21:54:47.422Z,101369.97
2022-08-29T21:59:48.946Z,101377.59
2022-08-29T22:04:50.350Z,101367.28
2022-08-29T22:09:51.945Z,101379.03
2022-08-29T22:14:53.518Z,101378.22
2022-08-29T22:19:54.976Z,101368.75
2022-08-29T22:24:56.472Z,101375.75
2022-08-29T22:29:58.011Z,101388.16
2022-08-29T22:34:59.482Z,101394.91
2022-08-29T22:40:01.062Z,101401.06
2022-08-29T22:45:04.212Z,101395.59
2022-08-29T22:50:09.326Z,101394.94
2022-08-29T22:55:14.123Z,101401.38
2022-08-29T23:00:21.485Z,101402.47
2022-08-29T23:05:23.047Z,101400.78
2022-08-29T23:10:24.647Z,101404.84
2022-08-29T23:15:26.351Z,101398.09
2022-08-29T23:20:29.256Z,101389.16
2022-08-29T23:25:31.126Z,101387.03
2022-08-29T23:30:32.737Z,101390.50
2022-08-29T23:35:34.141Z,101392.06
2022-08-29T23:40:36.843Z,101387.06
2022-08-29T23:45:38.876Z,101379.69
2022-08-29T23:50:40.767Z,101374.66
2022-08-29T23:55:46.702Z,101377.44
